Time;durP1;ratioP1;P1;durP2;ratioP2;P2;SDS_P1;SDS_P2;PMS_P1;PMS_P2;Temp;Humidity;BMP_temperature;BMP_pressure;BME280_temperature;BME280_humidity;BME280_pressure;Samples;Min_cycle;Max_cycle;Signal;HPM_P1;HPM_P2
2022/09/02 00:01:51;;;;;;;3.78;0.85;;;15.60;99.90;;;;;;5075173;28;20036;-84
2022/09/02 00:04:23;;;;;;;2.17;1.00;;;15.60;99.90;;;;;;5076171;28;20040;-84
2022/09/02 00:06:50;;;;;;;1.33;0.65;;;15.60;99.90;;;;;;5075717;28;20035;-84
2022/09/02 00:09:19;;;;;;;1.88;0.80;;;15.50;99.90;;;;;;5074507;28;20025;-84
2022/09/02 00:11:47;;;;;;;1.23;0.63;;;15.50;99.90;;;;;;5071936;28;20016;-83
2022/09/02 00:14:18;;;;;;;1.60;0.60;;;15.50;99.90;;;;;;5075888;28;20069;-84
2022/09/02 00:16:50;;;;;;;2.10;0.93;;;15.50;99.90;;;;;;5075180;28;20023;-84
2022/09/02 00:19:17;;;;;;;1.90;0.80;;;15.50;99.90;;;;;;5069348;28;20607;-84
2022/09/02 00:21:43;;;;;;;2.78;0.70;;;15.50;99.90;;;;;;5075238;28;20032;-84
2022/09/02 00:24:09;;;;;;;1.25;0.65;;;15.40;99.90;;;;;;5075806;28;20455;-84
2022/09/02 00:26:34;;;;;;;1.48;0.70;;;15.40;99.90;;;;;;5074068;28;20020;-84
2022/09/02 00:29:00;;;;;;;2.88;0.65;;;15.40;99.90;;;;;;5075950;28;20362;-84
2022/09/02 00:31:27;;;;;;;1.85;0.80;;;15.40;99.90;;;;;;5075947;28;20020;-84
2022/09/02 00:33:54;;;;;;;0.95;0.60;;;15.40;99.90;;;;;;5075725;28;20017;-85
2022/09/02 00:36:20;;;;;;;2.13;0.85;;;15.30;99.90;;;;;;5074418;28;20400;-84
2022/09/02 00:38:46;;;;;;;2.45;0.80;;;15.20;99.90;;;;;;5073450;28;20388;-84
2022/09/02 00:41:12;;;;;;;1.35;0.65;;;15.20;99.90;;;;;;5075953;28;20017;-85
2022/09/02 00:43:38;;;;;;;1.98;0.60;;;15.20;99.90;;;;;;5076151;28;20044;-84
2022/09/02 00:46:04;;;;;;;1.20;0.68;;;15.20;99.90;;;;;;5069552;28;20031;-84
2022/09/02 00:48:30;;;;;;;0.93;0.50;;;15.20;99.90;;;;;;5074159;28;20040;-84
2022/09/02 00:50:56;;;;;;;1.30;0.65;;;15.20;99.90;;;;;;5072324;28;20096;-84
2022/09/02 00:53:22;;;;;;;1.75;0.60;;;15.20;99.90;;;;;;5076610;28;20047;-84
2022/09/02 00:55:49;;;;;;;1.90;0.75;;;15.10;99.90;;;;;;5075843;28;20025;-85
2022/09/02 00:58:25;;;;;;;1.75;0.70;;;15.10;99.90;;;;;;5075304;28;20032;-84
2022/09/02 01:00:56;;;;;;;1.10;0.63;;;15.10;99.90;;;;;;5075817;28;20024;-85
2022/09/02 01:03:25;;;;;;;1.27;0.50;;;15.10;99.90;;;;;;5076216;28;20021;-84
2022/09/02 01:05:52;;;;;;;1.75;0.70;;;15.10;99.90;;;;;;5074912;28;20020;-85
2022/09/02 01:08:23;;;;;;;1.60;0.90;;;15.00;99.90;;;;;;5075631;28;20173;-84
2022/09/02 01:10:51;;;;;;;2.30;0.80;;;15.00;99.90;;;;;;5076928;28;20084;-85
2022/09/02 01:13:20;;;;;;;1.27;0.52;;;15.00;99.90;;;;;;5076525;28;20664;-84
2022/09/02 01:15:53;;;;;;;1.60;0.60;;;15.00;99.90;;;;;;5074805;28;20036;-85
2022/09/02 01:18:23;;;;;;;1.35;0.52;;;15.00;99.90;;;;;;5074808;28;20024;-85
2022/09/02 01:20:48;;;;;;;1.85;0.70;;;15.00;99.90;;;;;;5075943;28;20036;-84
2022/09/02 01:23:16;;;;;;;3.05;1.13;;;14.90;99.90;;;;;;5075385;28;20040;-85
2022/09/02 01:25:42;;;;;;;2.25;0.40;;;15.00;99.90;;;;;;5074602;28;20111;-84
2022/09/02 01:28:10;;;;;;;2.35;0.57;;;14.90;99.90;;;;;;5073325;28;20027;-85
2022/09/02 01:30:40;;;;;;;2.35;0.68;;;14.90;99.90;;;;;;5073698;28;20621;-84
2022/09/02 01:33:05;;;;;;;1.92;0.60;;;14.90;99.90;;;;;;5075838;28;20039;-84
2022/09/02 01:35:31;;;;;;;2.75;0.70;;;14.80;99.90;;;;;;5075077;28;20475;-84
2022/09/02 01:37:58;;;;;;;1.77;0.65;;;14.80;99.90;;;;;;5074853;28;20028;-84
2022/09/02 01:40:26;;;;;;;1.20;0.70;;;14.80;99.90;;;;;;5075528;28;20028;-84
2022/09/02 01:42:57;;;;;;;1.83;0.60;;;14.80;99.90;;;;;;5078453;28;20103;-84
2022/09/02 01:45:23;;;;;;;2.00;0.68;;;14.80;99.90;;;;;;5081477;28;20025;-83
2022/09/02 01:47:49;;;;;;;2.20;0.70;;;14.80;99.90;;;;;;5080495;28;20064;-84
2022/09/02 01:50:14;;;;;;;2.58;0.70;;;14.70;99.90;;;;;;5083167;28;20024;-84
2022/09/02 01:52:40;;;;;;;1.70;1.02;;;14.80;99.90;;;;;;5082407;28;20388;-84
2022/09/02 01:55:06;;;;;;;0.90;0.50;;;14.70;99.90;;;;;;5075389;28;20025;-84
2022/09/02 01:57:32;;;;;;;1.55;0.60;;;14.70;99.90;;;;;;5081735;28;20420;-84
2022/09/02 01:59:57;;;;;;;2.33;0.73;;;14.60;99.90;;;;;;5084352;28;20024;-84
2022/09/02 02:02:23;;;;;;;1.75;0.50;;;14.60;99.90;;;;;;5082577;28;20047;-84
2022/09/02 02:04:49;;;;;;;1.63;0.60;;;14.60;99.90;;;;;;5081272;28;20055;-84
2022/09/02 02:07:21;;;;;;;1.65;0.60;;;14.60;99.90;;;;;;5082363;28;20024;-84
2022/09/02 02:09:47;;;;;;;1.95;0.60;;;14.60;99.90;;;;;;5081797;28;20024;-84
2022/09/02 02:12:14;;;;;;;2.85;0.50;;;14.60;99.90;;;;;;5083070;28;20020;-84
2022/09/02 02:14:39;;;;;;;2.40;0.47;;;14.60;99.90;;;;;;5080224;28;20039;-84
2022/09/02 02:17:05;;;;;;;2.55;0.70;;;14.50;99.90;;;;;;5084974;28;20025;-84
2022/09/02 02:19:31;;;;;;;1.27;0.50;;;14.60;99.90;;;;;;5084481;28;20111;-84
2022/09/02 02:21:57;;;;;;;3.72;0.65;;;14.60;99.90;;;;;;5085432;28;20050;-84
2022/09/02 02:24:22;;;;;;;1.15;0.52;;;14.50;99.90;;;;;;5084734;28;20040;-83
2022/09/02 02:26:48;;;;;;;1.65;0.80;;;14.40;99.90;;;;;;5087812;28;20024;-84
2022/09/02 02:29:14;;;;;;;1.30;0.60;;;14.40;99.90;;;;;;5077070;28;20017;-84
2022/09/02 02:31:41;;;;;;;1.75;0.63;;;14.40;99.90;;;;;;5083819;28;20021;-84
2022/09/02 02:34:07;;;;;;;2.15;0.70;;;14.40;99.90;;;;;;5085185;28;20032;-84
2022/09/02 02:36:33;;;;;;;1.52;0.60;;;14.40;99.90;;;;;;5084343;28;20016;-84
2022/09/02 02:39:00;;;;;;;1.80;0.70;;;14.30;99.90;;;;;;5082493;28;20032;-84
2022/09/02 02:41:26;;;;;;;1.80;0.90;;;14.40;99.90;;;;;;5085217;28;20028;-84
2022/09/02 02:43:52;;;;;;;1.67;0.75;;;14.30;99.90;;;;;;5085910;28;20024;-84
2022/09/02 02:46:18;;;;;;;2.83;0.65;;;14.30;99.90;;;;;;5093381;28;20039;-83
2022/09/02 02:48:44;;;;;;;1.50;0.70;;;14.40;99.90;;;;;;5091311;28;20088;-84
2022/09/02 02:51:09;;;;;;;1.30;0.52;;;14.30;99.90;;;;;;5083256;28;20101;-84
2022/09/02 02:53:35;;;;;;;1.50;0.60;;;14.30;99.90;;;;;;5076979;28;20107;-84
2022/09/02 02:56:02;;;;;;;1.38;0.60;;;14.30;99.90;;;;;;5077728;28;20051;-84
2022/09/02 02:58:28;;;;;;;2.45;0.60;;;14.20;99.90;;;;;;5079005;28;20031;-83
2022/09/02 03:00:55;;;;;;;1.08;0.55;;;14.20;99.90;;;;;;5075558;28;20072;-84
2022/09/02 03:03:21;;;;;;;1.92;0.80;;;14.20;99.90;;;;;;5076742;28;20082;-85
2022/09/02 03:05:48;;;;;;;2.33;0.80;;;14.20;99.90;;;;;;5077707;28;20033;-84
2022/09/02 03:08:14;;;;;;;1.27;0.60;;;14.20;99.90;;;;;;5077531;28;20020;-84
2022/09/02 03:10:42;;;;;;;2.88;0.70;;;14.20;99.90;;;;;;5076644;28;20092;-84
2022/09/02 03:13:10;;;;;;;1.83;0.63;;;14.20;99.90;;;;;;5076973;28;20047;-84
2022/09/02 03:15:38;;;;;;;1.45;0.50;;;14.10;99.90;;;;;;5076823;28;20568;-84
2022/09/02 03:18:04;;;;;;;1.92;0.65;;;14.10;99.90;;;;;;5077119;28;20009;-84
2022/09/02 03:20:30;;;;;;;1.42;0.70;;;14.10;99.90;;;;;;5077039;28;20021;-84
2022/09/02 03:22:57;;;;;;;1.58;0.60;;;14.10;99.90;;;;;;5075705;28;20389;-84
2022/09/02 03:25:24;;;;;;;1.38;0.60;;;14.00;99.90;;;;;;5075076;28;20178;-84
2022/09/02 03:27:50;;;;;;;1.15;0.60;;;14.10;99.90;;;;;;5074926;28;20031;-84
2022/09/02 03:30:24;;;;;;;2.42;0.65;;;14.00;99.90;;;;;;5077130;28;20015;-84
2022/09/02 03:32:54;;;;;;;1.73;0.60;;;14.00;99.90;;;;;;5075193;28;20045;-84
2022/09/02 03:35:21;;;;;;;1.58;0.70;;;14.00;99.90;;;;;;5075989;28;20506;-84
2022/09/02 03:37:48;;;;;;;1.83;0.70;;;14.00;99.90;;;;;;5070855;28;20052;-84
2022/09/02 03:40:22;;;;;;;1.20;0.65;;;14.00;99.90;;;;;;5074356;28;20077;-84
2022/09/02 03:42:48;;;;;;;4.63;0.80;;;13.90;99.90;;;;;;5073820;28;20507;-84
2022/09/02 03:45:14;;;;;;;1.20;0.63;;;13.90;99.90;;;;;;5076166;28;20107;-84
2022/09/02 03:47:46;;;;;;;1.95;0.70;;;13.90;99.90;;;;;;5075592;28;20025;-84
2022/09/02 03:50:11;;;;;;;1.38;0.63;;;13.90;99.90;;;;;;5075733;28;20027;-84
2022/09/02 03:52:37;;;;;;;1.25;0.55;;;13.90;99.90;;;;;;5074439;28;20115;-84
2022/09/02 03:55:06;;;;;;;2.00;0.90;;;13.90;99.90;;;;;;5073934;28;20362;-84
2022/09/02 03:57:33;;;;;;;1.52;0.50;;;13.80;99.90;;;;;;5075085;28;20029;-84
2022/09/02 04:00:01;;;;;;;1.48;0.70;;;13.90;99.90;;;;;;5074401;28;20025;-85
2022/09/02 04:02:26;;;;;;;1.15;0.60;;;13.80;99.90;;;;;;5075722;28;20032;-84
2022/09/02 04:04:53;;;;;;;1.30;0.60;;;13.80;99.90;;;;;;5075116;28;20017;-84
2022/09/02 04:07:19;;;;;;;1.60;0.75;;;13.70;99.90;;;;;;5073800;28;20100;-84
2022/09/02 04:09:45;;;;;;;1.67;0.60;;;13.80;99.90;;;;;;5074676;28;20515;-84
2022/09/02 04:12:11;;;;;;;2.03;0.80;;;13.80;99.90;;;;;;5075718;28;20087;-84
2022/09/02 04:14:37;;;;;;;1.42;0.60;;;13.70;99.90;;;;;;5075324;28;20043;-84
2022/09/02 04:21:18;;;;;;;2.72;0.88;;;13.70;99.90;;;;;;5071897;28;20510;-84
2022/09/02 04:23:44;;;;;;;1.90;0.85;;;13.70;99.90;;;;;;5073445;28;20029;-84
2022/09/02 04:26:12;;;;;;;1.33;0.63;;;13.80;99.90;;;;;;5074551;28;20028;-84
2022/09/02 04:28:39;;;;;;;1.08;0.47;;;13.70;99.90;;;;;;5074999;28;20024;-84
2022/09/02 04:31:07;;;;;;;1.42;0.43;;;13.70;99.90;;;;;;5075620;28;20032;-85
2022/09/02 04:33:34;;;;;;;1.80;0.63;;;13.70;99.90;;;;;;5072826;28;20024;-84
2022/09/02 04:36:02;;;;;;;1.20;0.65;;;13.70;99.90;;;;;;5073350;28;20481;-84
2022/09/02 04:38:28;;;;;;;1.25;0.80;;;13.70;99.90;;;;;;5083531;22;20145;-83
2022/09/02 04:40:53;;;;;;;1.27;0.63;;;13.60;99.90;;;;;;5071095;28;20059;-83
2022/09/02 04:43:19;;;;;;;1.25;0.70;;;13.60;99.90;;;;;;5069501;28;20481;-83
2022/09/02 04:45:46;;;;;;;2.30;0.80;;;13.50;99.90;;;;;;5075097;28;20031;-83
2022/09/02 04:48:11;;;;;;;1.83;0.68;;;13.60;99.90;;;;;;5070863;28;20181;-83
2022/09/02 04:50:39;;;;;;;1.23;0.60;;;13.60;99.90;;;;;;5063526;28;20595;-83
2022/09/02 04:53:05;;;;;;;1.92;0.75;;;13.60;99.90;;;;;;5069484;28;20021;-83
2022/09/02 04:55:31;;;;;;;1.73;0.80;;;13.60;99.90;;;;;;5069938;28;20040;-83
2022/09/02 04:57:57;;;;;;;3.40;0.73;;;13.50;99.90;;;;;;5071587;28;20388;-82
2022/09/02 05:00:23;;;;;;;2.88;1.08;;;13.60;99.90;;;;;;5070515;28;20027;-83
2022/09/02 05:02:49;;;;;;;2.72;1.02;;;13.60;99.90;;;;;;5069614;28;20408;-82
2022/09/02 05:05:14;;;;;;;1.45;0.65;;;13.50;99.90;;;;;;5066076;28;20031;-83
2022/09/02 05:07:40;;;;;;;1.88;0.85;;;13.60;99.90;;;;;;5070552;28;20397;-83
2022/09/02 05:10:06;;;;;;;2.53;1.00;;;13.70;99.90;;;;;;5068327;28;20028;-83
2022/09/02 05:12:34;;;;;;;2.17;0.80;;;13.60;99.90;;;;;;5076173;28;20029;-83
2022/09/02 05:15:00;;;;;;;2.40;0.98;;;13.70;99.90;;;;;;5084854;28;20701;-83
2022/09/02 05:17:27;;;;;;;1.75;0.70;;;13.70;99.90;;;;;;5065157;28;20480;-83
2022/09/02 05:19:53;;;;;;;1.98;0.80;;;13.70;99.90;;;;;;5057085;28;20013;-83
2022/09/02 05:22:19;;;;;;;1.88;0.90;;;13.70;99.90;;;;;;5060345;28;20075;-83
2022/09/02 05:24:45;;;;;;;2.65;1.02;;;13.70;99.90;;;;;;5068255;28;20025;-83
2022/09/02 05:27:14;;;;;;;2.20;0.90;;;13.70;99.90;;;;;;5060719;28;20025;-83
2022/09/02 05:29:40;;;;;;;3.40;0.60;;;13.80;99.90;;;;;;5069052;28;20425;-83
2022/09/02 05:32:09;;;;;;;1.33;0.57;;;13.80;99.90;;;;;;5065554;28;20074;-83
2022/09/02 05:34:36;;;;;;;1.40;0.65;;;13.80;99.90;;;;;;5069331;28;20032;-83
2022/09/02 05:37:03;;;;;;;2.13;0.70;;;13.90;99.90;;;;;;5064963;28;20024;-83
2022/09/02 05:39:29;;;;;;;3.13;0.93;;;14.00;99.90;;;;;;5063802;28;20033;-83
2022/09/02 05:41:55;;;;;;;1.98;0.77;;;14.00;99.90;;;;;;5070181;28;20389;-83
2022/09/02 05:44:20;;;;;;;1.40;0.70;;;14.20;99.90;;;;;;5066609;28;20020;-83
2022/09/02 05:46:46;;;;;;;1.15;0.55;;;14.30;99.90;;;;;;5070943;28;20082;-83
2022/09/02 05:49:16;;;;;;;1.08;0.50;;;14.40;99.90;;;;;;5069350;28;20489;-83
2022/09/02 05:51:51;;;;;;;1.48;0.80;;;14.40;99.90;;;;;;5067856;28;20028;-83
2022/09/02 05:54:20;;;;;;;1.92;0.75;;;14.50;99.90;;;;;;5065940;28;20485;-83
2022/09/02 05:56:49;;;;;;;2.67;0.80;;;14.60;99.90;;;;;;5068156;28;20021;-83
2022/09/02 05:59:15;;;;;;;2.70;0.90;;;14.70;99.90;;;;;;5067011;28;20100;-83
2022/09/02 06:01:41;;;;;;;1.83;0.60;;;14.80;99.90;;;;;;5069055;28;20044;-83
2022/09/02 06:04:08;;;;;;;3.25;0.77;;;14.80;99.90;;;;;;5061940;28;20445;-83
2022/09/02 06:06:37;;;;;;;3.60;0.73;;;15.00;99.90;;;;;;5064923;28;20034;-83
2022/09/02 06:09:05;;;;;;;2.05;0.70;;;15.00;99.90;;;;;;5066112;28;20031;-83
2022/09/02 06:11:31;;;;;;;1.48;0.55;;;15.10;99.90;;;;;;5067035;28;20021;-83
2022/09/02 06:13:56;;;;;;;2.28;0.70;;;15.20;99.90;;;;;;5063580;28;20097;-83
2022/09/02 06:16:22;;;;;;;1.73;0.80;;;15.30;99.90;;;;;;5065509;28;20067;-83
2022/09/02 06:18:49;;;;;;;1.90;0.80;;;15.50;99.90;;;;;;5068741;28;20013;-83
2022/09/02 06:21:15;;;;;;;1.58;0.70;;;15.50;99.90;;;;;;5065080;28;20021;-83
2022/09/02 06:23:41;;;;;;;2.75;0.70;;;15.60;99.90;;;;;;5061960;28;20369;-83
2022/09/02 06:26:09;;;;;;;1.25;0.50;;;15.70;99.90;;;;;;5063203;28;20021;-83
2022/09/02 06:28:35;;;;;;;1.35;0.65;;;15.80;99.90;;;;;;5068578;28;20106;-83
2022/09/02 06:31:10;;;;;;;2.15;0.80;;;15.90;99.90;;;;;;5074710;28;20393;-83
2022/09/02 06:33:36;;;;;;;2.25;0.85;;;15.90;99.90;;;;;;5071819;28;20024;-83
2022/09/02 06:36:08;;;;;;;1.55;0.60;;;15.90;99.90;;;;;;5073136;28;20097;-83
2022/09/02 06:38:39;;;;;;;5.90;0.70;;;15.90;99.90;;;;;;5065273;28;20028;-83
2022/09/02 06:41:05;;;;;;;1.67;0.70;;;16.00;99.90;;;;;;5063162;28;20013;-83
2022/09/02 06:43:31;;;;;;;1.63;0.80;;;16.00;99.90;;;;;;5064485;28;20075;-83
2022/09/02 06:45:56;;;;;;;2.13;1.00;;;16.10;99.90;;;;;;5071383;28;20044;-83
2022/09/02 06:48:22;;;;;;;2.20;0.88;;;16.20;99.90;;;;;;5073321;28;20016;-83
2022/09/02 06:50:48;;;;;;;2.22;0.77;;;16.30;99.90;;;;;;5072235;28;20027;-83
2022/09/02 06:53:15;;;;;;;2.70;0.70;;;16.40;99.90;;;;;;5073254;28;20557;-84
2022/09/02 06:55:43;;;;;;;1.75;0.73;;;16.40;99.90;;;;;;5070307;28;20056;-83
2022/09/02 06:58:09;;;;;;;2.38;0.77;;;16.40;99.90;;;;;;5063942;28;20432;-83
2022/09/02 07:00:35;;;;;;;1.98;0.82;;;16.50;99.90;;;;;;5065552;28;20055;-83
2022/09/02 07:05:46;;;;;;;1.75;0.80;;;16.60;99.90;;;;;;5068730;28;20034;-83
2022/09/02 07:08:12;;;;;;;2.58;0.60;;;16.70;99.90;;;;;;5067628;28;20025;-84
2022/09/02 07:10:39;;;;;;;3.20;0.90;;;16.90;99.90;;;;;;5075911;28;20364;-83
2022/09/02 07:13:06;;;;;;;2.00;0.75;;;17.00;99.90;;;;;;5069723;28;20028;-83
2022/09/02 07:15:32;;;;;;;2.13;0.90;;;17.10;99.90;;;;;;5063314;28;20024;-83
2022/09/02 07:17:58;;;;;;;2.03;0.88;;;17.10;99.90;;;;;;5071505;28;20021;-84
2022/09/02 07:20:24;;;;;;;1.27;0.60;;;17.10;99.90;;;;;;5067933;28;20027;-83
2022/09/02 07:22:49;;;;;;;1.90;0.95;;;17.10;99.90;;;;;;5072970;28;20096;-83
2022/09/02 07:25:17;;;;;;;1.75;0.73;;;17.30;99.90;;;;;;5068914;28;20021;-83
2022/09/02 07:27:43;;;;;;;2.72;0.60;;;17.30;99.90;;;;;;5071002;28;20488;-84
2022/09/02 07:30:11;;;;;;;3.60;0.70;;;17.40;99.90;;;;;;5066309;28;20432;-84
2022/09/02 07:32:36;;;;;;;1.55;0.63;;;17.50;99.90;;;;;;5069042;28;20021;-84
2022/09/02 07:35:05;;;;;;;1.55;0.80;;;17.60;99.90;;;;;;5066658;28;20166;-83
2022/09/02 07:37:31;;;;;;;1.63;0.50;;;17.70;99.90;;;;;;5065189;28;20021;-83
2022/09/02 07:39:57;;;;;;;2.35;0.70;;;17.80;99.90;;;;;;5063803;28;20468;-84
2022/09/02 07:42:23;;;;;;;1.45;0.60;;;17.80;99.90;;;;;;5065913;28;20491;-83
2022/09/02 07:44:49;;;;;;;1.20;0.52;;;17.90;99.90;;;;;;5071205;28;20032;-84
2022/09/02 07:47:15;;;;;;;2.20;0.90;;;18.00;99.90;;;;;;5070566;28;20477;-83
2022/09/02 07:49:41;;;;;;;1.92;0.60;;;18.10;99.90;;;;;;5062253;28;20036;-84
2022/09/02 07:52:06;;;;;;;1.23;0.57;;;18.30;99.90;;;;;;5069159;28;20032;-83
2022/09/02 07:54:33;;;;;;;0.90;0.38;;;18.30;99.90;;;;;;5068389;28;20027;-84
2022/09/02 07:56:59;;;;;;;1.13;0.50;;;18.30;99.90;;;;;;5063913;28;20044;-84
2022/09/02 07:59:25;;;;;;;1.13;0.55;;;18.40;99.90;;;;;;5065985;28;20050;-84
2022/09/02 08:01:51;;;;;;;1.00;0.50;;;18.40;99.90;;;;;;5072107;28;20024;-83
2022/09/02 08:04:18;;;;;;;1.98;0.60;;;18.50;99.90;;;;;;5067348;28;20477;-83
2022/09/02 08:06:43;;;;;;;1.58;0.60;;;18.70;99.90;;;;;;5077547;28;20067;-83
2022/09/02 08:09:10;;;;;;;1.25;0.60;;;18.70;99.90;;;;;;5065632;28;20052;-84
2022/09/02 08:11:43;;;;;;;1.05;0.50;;;18.80;99.90;;;;;;5062411;28;20433;-83
2022/09/02 08:14:11;;;;;;;1.00;0.50;;;18.80;99.90;;;;;;5067379;28;20119;-83
2022/09/02 08:16:38;;;;;;;1.58;0.60;;;18.90;99.90;;;;;;5062066;28;20025;-84
2022/09/02 08:19:05;;;;;;;1.52;0.50;;;18.90;99.90;;;;;;5069031;28;20043;-83
2022/09/02 08:21:31;;;;;;;0.88;0.50;;;19.00;99.90;;;;;;5071762;28;20024;-84
2022/09/02 08:23:57;;;;;;;1.08;0.50;;;19.10;99.90;;;;;;5081226;28;20031;-84
2022/09/02 08:26:25;;;;;;;1.60;0.50;;;19.20;99.90;;;;;;5070175;28;20064;-83
2022/09/02 08:28:50;;;;;;;1.23;0.40;;;19.20;99.90;;;;;;5067389;28;20470;-83
2022/09/02 08:31:17;;;;;;;0.98;0.40;;;19.30;99.90;;;;;;5071197;28;20035;-83
2022/09/02 08:33:43;;;;;;;1.38;0.50;;;19.30;99.90;;;;;;5069028;28;20570;-83
2022/09/02 08:36:10;;;;;;;0.90;0.40;;;19.40;99.90;;;;;;5070043;28;20073;-83
2022/09/02 08:38:36;;;;;;;1.10;0.50;;;19.50;99.90;;;;;;5061460;28;20029;-83
2022/09/02 08:41:21;;;;;;;1.65;0.68;;;19.40;99.90;;;;;;5069352;28;20112;-83
2022/09/02 08:43:48;;;;;;;1.70;0.60;;;19.50;99.90;;;;;;5070197;28;20302;-84
2022/09/02 08:46:16;;;;;;;1.33;0.52;;;19.60;99.90;;;;;;5068534;28;20029;-83
2022/09/02 08:49:03;;;;;;;2.92;0.40;;;19.60;99.90;;;;;;5070459;28;20031;-83
2022/09/02 08:51:55;;;;;;;1.02;0.40;;;19.70;99.90;;;;;;5069437;28;20485;-83
2022/09/02 08:54:39;;;;;;;1.92;0.45;;;19.80;99.90;;;;;;5065589;28;20060;-83
2022/09/02 08:57:05;;;;;;;0.98;0.40;;;19.90;99.90;;;;;;5065901;28;20118;-84
2022/09/02 08:59:30;;;;;;;1.10;0.43;;;20.00;99.90;;;;;;5068091;28;20107;-83
2022/09/02 09:02:25;;;;;;;0.75;0.30;;;20.10;99.90;;;;;;5071407;28;20024;-83
2022/09/02 09:05:05;;;;;;;0.47;0.30;;;20.10;99.90;;;;;;5067497;28;20028;-83
2022/09/02 09:07:49;;;;;;;2.10;0.50;;;20.40;99.90;;;;;;5069276;28;20021;-83
2022/09/02 09:10:55;;;;;;;1.80;0.40;;;20.60;99.90;;;;;;5070280;28;20499;-83
2022/09/02 09:13:24;;;;;;;1.73;0.65;;;20.50;99.90;;;;;;5046728;28;20361;-83
2022/09/02 09:16:19;;;;;;;0.82;0.40;;;20.50;99.90;;;;;;5059795;28;20028;-83
2022/09/02 09:18:50;;;;;;;0.70;0.30;;;20.60;99.90;;;;;;5068434;28;20025;-83
2022/09/02 09:21:16;;;;;;;;;;;20.80;99.90;;;;;;5068233;28;20019;-83
2022/09/02 09:23:43;;;;;;;1.13;0.38;;;21.00;99.90;;;;;;5064272;28;20417;-83
2022/09/02 09:26:11;;;;;;;1.30;0.55;;;21.10;99.90;;;;;;5074284;28;20023;-83
2022/09/02 09:28:43;;;;;;;1.38;0.40;;;21.00;99.60;;;;;;5064331;28;20490;-83
2022/09/02 09:31:11;;;;;;;1.67;0.50;;;21.00;99.90;;;;;;5066145;28;20019;-84
2022/09/02 09:33:37;;;;;;;0.68;0.20;;;21.10;99.80;;;;;;5069589;28;20047;-83
2022/09/02 09:36:04;;;;;;;1.38;0.43;;;21.20;99.70;;;;;;5068601;28;20486;-83
2022/09/02 09:38:32;;;;;;;0.85;0.40;;;21.30;99.40;;;;;;5066001;28;20031;-83
2022/09/02 09:41:13;;;;;;;1.40;0.50;;;21.30;99.30;;;;;;5060784;28;20016;-83
2022/09/02 09:43:38;;;;;;;0.40;0.30;;;21.40;98.80;;;;;;5068379;28;20397;-83
2022/09/02 09:46:27;;;;;;;0.70;0.30;;;21.40;98.30;;;;;;5070281;28;20021;-84
2022/09/02 09:48:53;;;;;;;1.33;0.35;;;21.60;98.20;;;;;;5070556;28;20119;-83
2022/09/02 09:51:19;;;;;;;1.05;0.30;;;21.60;97.60;;;;;;5065744;28;20021;-83
2022/09/02 09:53:45;;;;;;;0.63;0.20;;;21.60;97.90;;;;;;5069418;28;20028;-84
2022/09/02 09:56:14;;;;;;;1.13;0.30;;;21.80;97.70;;;;;;5066368;28;20013;-83
2022/09/02 09:58:40;;;;;;;1.23;0.40;;;21.80;97.30;;;;;;5069900;28;20032;-83
2022/09/02 10:01:14;;;;;;;1.77;0.40;;;21.90;96.80;;;;;;5067018;28;20492;-83
2022/09/02 10:03:54;;;;;;;1.27;0.30;;;22.10;97.00;;;;;;5070674;28;20136;-83
2022/09/02 10:06:34;;;;;;;0.20;0.10;;;22.30;96.60;;;;;;5065086;28;20021;-83
2022/09/02 10:09:18;;;;;;;2.28;0.55;;;22.30;95.90;;;;;;5065767;28;20023;-83
2022/09/02 10:12:03;;;;;;;1.20;0.35;;;22.20;96.00;;;;;;5073240;28;20557;-84
2022/09/02 10:14:47;;;;;;;0.90;0.20;;;22.20;96.50;;;;;;5069621;28;20025;-83
2022/09/02 10:17:25;;;;;;;0.60;0.30;;;22.30;95.90;;;;;;5067891;28;20021;-83
2022/09/02 10:20:14;;;;;;;0.60;0.20;;;22.30;94.40;;;;;;5072833;28;20536;-84
2022/09/02 10:23:17;;;;;;;0.85;0.30;;;22.20;94.90;;;;;;5072364;28;20119;-83
2022/09/02 10:25:52;;;;;;;1.00;0.30;;;22.30;94.70;;;;;;5070764;28;20497;-83
2022/09/02 10:28:35;;;;;;;1.45;0.30;;;22.60;95.20;;;;;;5070025;28;20052;-83
2022/09/02 10:31:01;;;;;;;0.70;0.30;;;22.70;94.40;;;;;;5066281;28;20439;-83
2022/09/02 10:33:42;;;;;;;0.93;0.30;;;22.70;94.50;;;;;;5072069;28;20033;-84
2022/09/02 10:36:30;;;;;;;1.00;0.30;;;23.00;94.40;;;;;;5069349;28;20013;-83
2022/09/02 10:39:22;;;;;;;0.70;0.30;;;23.30;94.10;;;;;;5082888;22;20512;-85
2022/09/02 10:41:49;;;;;;;0.95;0.38;;;23.30;93.10;;;;;;5031017;28;20037;-86
2022/09/02 10:45:01;;;;;;;0.90;0.40;;;23.30;92.40;;;;;;5069409;28;20519;-86
2022/09/02 10:47:36;;;;;;;0.57;0.30;;;23.40;92.30;;;;;;5073554;28;20111;-85
2022/09/02 10:50:32;;;;;;;0.85;0.30;;;23.50;92.80;;;;;;5068868;28;20594;-86
2022/09/02 10:53:04;;;;;;;0.75;0.40;;;23.50;91.70;;;;;;5068227;28;20497;-86
2022/09/02 10:55:59;;;;;;;0.43;0.28;;;23.80;92.80;;;;;;5062799;28;20576;-85
2022/09/02 10:58:33;;;;;;;0.50;0.20;;;23.90;91.20;;;;;;5070005;28;20020;-86
2022/09/02 11:00:59;;;;;;;0.82;0.30;;;23.80;90.30;;;;;;5069703;28;20020;-85
2022/09/02 11:03:49;;;;;;;0.32;0.20;;;24.00;90.80;;;;;;5072097;28;20103;-86
2022/09/02 11:06:25;;;;;;;0.45;0.30;;;23.90;89.80;;;;;;5070853;28;20023;-86
2022/09/02 11:09:02;;;;;;;0.50;0.20;;;23.90;90.70;;;;;;5089002;28;20052;-86
2022/09/02 11:11:42;;;;;;;0.50;0.20;;;24.00;91.00;;;;;;5065570;28;20056;-86
2022/09/02 11:14:26;;;;;;;0.57;0.30;;;24.20;89.70;;;;;;5080911;28;20028;-86
2022/09/02 11:17:01;;;;;;;0.60;0.20;;;24.30;89.30;;;;;;5068923;28;20029;-85
2022/09/02 11:19:47;;;;;;;0.63;0.20;;;24.20;89.00;;;;;;5060594;28;20140;-86
2022/09/02 11:22:52;;;;;;;0.65;0.20;;;24.40;89.50;;;;;;5068722;28;20096;-86
2022/09/02 11:25:23;;;;;;;0.98;0.30;;;24.50;89.80;;;;;;5054945;28;20090;-86
2022/09/02 11:28:07;;;;;;;3.08;0.38;;;24.80;90.20;;;;;;5063395;28;20542;-86
2022/09/02 11:30:58;;;;;;;1.05;0.32;;;24.60;87.50;;;;;;5069353;28;20036;-86
2022/09/02 11:33:39;;;;;;;0.20;0.10;;;25.00;88.60;;;;;;5071019;28;20027;-86
2022/09/02 11:36:05;;;;;;;1.88;0.20;;;25.10;86.80;;;;;;5065534;28;20089;-86
2022/09/02 11:38:48;;;;;;;0.70;0.40;;;25.20;87.40;;;;;;5070057;28;20115;-86
2022/09/02 11:41:44;;;;;;;0.40;0.20;;;25.30;87.20;;;;;;5059325;28;20052;-86
2022/09/02 11:44:57;;;;;;;1.48;0.30;;;25.50;87.10;;;;;;5066523;28;20016;-85
2022/09/02 11:47:25;;;;;;;0.73;0.30;;;25.60;85.60;;;;;;5064436;28;20071;-86
2022/09/02 11:50:17;;;;;;;0.60;0.30;;;25.50;84.90;;;;;;5061653;28;20074;-86
2022/09/02 11:53:13;;;;;;;0.85;0.25;;;25.70;85.50;;;;;;5061453;28;20389;-86
2022/09/02 11:56:02;;;;;;;1.17;0.30;;;25.70;84.60;;;;;;5066100;28;20101;-86
2022/09/02 11:58:39;;;;;;;0.60;0.30;;;25.80;83.10;;;;;;5070801;28;20013;-85
2022/09/02 12:01:15;;;;;;;1.42;0.20;;;25.40;84.80;;;;;;5093849;28;20442;-86
2022/09/02 12:04:05;;;;;;;0.85;0.30;;;25.40;84.00;;;;;;5067311;28;20393;-87
2022/09/02 12:06:31;;;;;;;0.45;0.20;;;25.20;84.20;;;;;;5067137;28;20020;-86
2022/09/02 12:09:01;;;;;;;1.00;0.30;;;25.00;84.50;;;;;;5061903;28;20039;-86
2022/09/02 12:11:48;;;;;;;0.65;0.30;;;25.20;86.60;;;;;;5070746;28;20520;-86
2022/09/02 12:14:22;;;;;;;0.52;0.20;;;25.20;83.90;;;;;;5062885;28;20492;-86
2022/09/02 12:17:04;;;;;;;0.57;0.20;;;25.40;85.80;;;;;;5064008;28;20048;-86
2022/09/02 12:19:44;;;;;;;0.50;0.22;;;25.40;83.90;;;;;;5058971;28;20049;-86
2022/09/02 12:22:16;;;;;;;0.60;0.20;;;25.20;83.60;;;;;;5069732;28;20444;-86
2022/09/02 12:24:59;;;;;;;0.43;0.20;;;25.50;84.50;;;;;;5065627;28;20026;-86
2022/09/02 12:27:28;;;;;;;0.77;0.20;;;25.40;83.60;;;;;;5063358;28;20017;-86
2022/09/02 12:29:55;;;;;;;0.93;0.30;;;25.60;83.20;;;;;;5077137;28;20056;-86
2022/09/02 12:32:49;;;;;;;0.85;0.40;;;25.80;83.90;;;;;;5067446;28;20016;-86
2022/09/02 12:35:40;;;;;;;1.05;0.40;;;25.90;83.70;;;;;;5057427;28;20037;-86
2022/09/02 12:38:09;;;;;;;0.40;0.25;;;26.00;82.60;;;;;;5081425;28;20033;-86
2022/09/02 12:41:03;;;;;;;1.25;0.30;;;25.80;83.30;;;;;;5061203;28;20025;-86
2022/09/02 12:43:43;;;;;;;0.85;0.30;;;26.10;80.70;;;;;;5040296;28;20034;-86
2022/09/02 12:46:22;;;;;;;0.60;0.20;;;26.40;81.30;;;;;;5063767;28;20078;-85
2022/09/02 12:49:00;;;;;;;0.95;0.22;;;26.60;81.90;;;;;;5071250;28;20021;-86
2022/09/02 12:52:07;;;;;;;0.50;0.20;;;26.70;81.70;;;;;;5061461;28;20020;-87
2022/09/02 12:54:46;;;;;;;0.40;0.20;;;26.70;81.30;;;;;;5025315;28;20393;-86
2022/09/02 12:57:15;;;;;;;0.88;0.30;;;26.70;81.70;;;;;;5006600;28;20123;-86
2022/09/02 12:59:42;;;;;;;1.13;0.30;;;26.50;82.60;;;;;;5061186;28;20495;-86
2022/09/02 13:02:10;;;;;;;1.00;0.40;;;26.50;81.10;;;;;;5069803;28;20136;-87
2022/09/02 13:04:57;;;;;;;0.88;0.40;;;26.60;82.60;;;;;;5067953;28;20028;-86
2022/09/02 13:07:45;;;;;;;0.60;0.30;;;26.70;78.90;;;;;;5069969;28;20027;-86
2022/09/02 13:10:30;;;;;;;0.80;0.30;;;27.00;80.00;;;;;;5077828;28;20040;-86
2022/09/02 13:13:23;;;;;;;0.90;0.40;;;27.30;79.40;;;;;;5068021;28;20101;-86
2022/09/02 13:16:26;;;;;;;2.92;0.20;;;27.00;79.70;;;;;;5068953;28;20028;-86